Extreme weather reports worldwide

Lowest temperatures

Station
 
Location
 
Name
 
Wind
Knots
Gust
Knots
Vis
SM
Temp/Dew
C
Baro
inHg
METAR
 
NZCM 20 27 6.21 -13/-18 28.83 NZCM 100455Z AUTO 19020G27KT 9999 FEW075 OVC190 M14/M18 A2883 RMK AO2 PK WND 20027/0452 SLP767 T11381181 $
OAR KOAR Marina, US Marina Municipal Airport 11 10 -4/-6 30.02 KOAR 100455Z AUTO 25011KT 10SM CLR M04/M06 A3002 RMK AO2 PWINO
WAP SCAP Alto Palena, CL Alto Palena Airport 1 4.97 -2/-3 30.15 SCAP 100400Z AUTO VRB01KT 8000 ////// M02/M03 Q1021
BRC SAZS San Carlos de Bariloche, AR San Carlos De Bariloche Airport 5 6.21 -1/-3 30.12 SAZS 100400Z 14005KT CAVOK M01/M03 Q1020 RMK PP///
YRB CYRB Resolute Bay, CA Resolute Bay Airport 6 0.25 0/0 29.74 CYRB 100431Z 28006KT 1/4SM R35/1800V2200FT/N FG VV001 00/M00 A2974 RMK FG8 SLP078

Station
 
Location
 
Name
 
Wind
Knots
Gust
Knots
Vis
SM
Temp/Dew
C
Baro
inHg
METAR
 
LPB SLLP La Paz / El Alto, BO El Alto International Airport 6 2.49 0/0 30.74 SLLP 100400Z 08006KT 4000E VCFG FEW002 SCT010 00/00 Q1041
FFU SCFT Futaleufu, CL Futaleufú Airport 5 6.21 0/-1 30.06 SCFT 100400Z AUTO 28005KT CAVOK M00/M01 Q1018
CXSE 3 0/0 CXSE 100400Z AUTO 11003KT M00/M00 RMK AO1 SLP080 T10031003 58007
CXRB 6 0/0 CXRB 100400Z AUTO 28006KT M00/M00 RMK AO1 SLP075 T10021001 55006
CWFD 1/1 29.63 CWFD 100416Z AUTO ///// ////SM FEW002 OVC032 01/01 A2963
NQN SAZN Neuquen, AR Presidente Peron Airport 0 1/1 30.18 SAZN 100400Z 00000KT BR SCT025 BKN200 01/01 Q1022
BFN FABL Bloemfontain, ZA Bram Fischer International Airport 0 6.21 1/0 30.24 FABL 100400Z 00000KT CAVOK 01/M00 Q1024 NOSIG
MPN EGYP Mount Pleasant, FK Mount Pleasant Airport 2 6.21 1/0 29.73 EGYP 100350Z 12002KT CAVOK 01/00 Q1007
WCH SCTN Chaiten, CL Chaitén Airport 3 6.21 2/2 30.12 SCTN 100400Z AUTO 06003KT CAVOK 02/02 Q1020
PMC SCTE Puerto Montt, CL El Tepual Airport 0 6.21 2/2 30.12 SCTE 100400Z 00000KT CAVOK 02/02 Q1020 NOSIG
ZCO SCQP Temuco, CL La Araucanía Airport 0 0.5 2/2 30.12 SCQP 100400Z AUTO 00000KT 0800 0450 R01/0600 FG SCT006 02/02 Q1020
ZOS SCJO Osorno, CL Cañal Bajo Carlos - Hott Siebert Airport 2 0.19 2/2 30.12 SCJO 100400Z AUTO 15002KT 0300 FG VV001 02/02 Q1020
RGA SAWE Rio Grande, AR Hermes Quijada International Airport 4 6.21 2/2 29.62 SAWE 100400Z 09004KT 9999 DZ SCT010 OVC015 02/02 Q1003 RMK PP999
COR SACO Cordoba, AR Ingeniero Ambrosio Taravella Airport 9 6.21 2/0 30.35 SACO 100400Z 36009KT CAVOK 02/00 Q1028 NOSIG RMK PP000
CZRP 4 2/1 CZRP 100400Z AUTO 18004KT 02/01 RMK AO1 SLP066 T00230012 56007
LIMH IT Pian Rosà 3 2/1 30.56 LIMH 100355Z AUTO VRB03KT //// 02/01 Q1035
KUS BGKK Kulusuk, GL Kulusuk Airport 6 3/3 29.50 BGKK 100450Z AUTO 23006KT 9999NDV BKN002/// 03/03 Q0999
ZAL SCVD Valdivia, CL Pichoy Airport 0 0.12 3/3 30.12 SCVD 100400Z AUTO 00000KT 0200 R35/0250N FG VV002 03/03 Q1020
CWVD 9 3/1 29.68 CWVD 100400Z AUTO 32009KT ////SM OVC049 03/01 A2968
FACV Calvinia, ZA Calvinia Airport 2 0.06 3/2 30.12 FACV 100354Z 20002KT 0100 FG OVC000 03/02 Q1020
JAV BGJN Ilulissat, GL Ilulissat Airport 7 4/3 29.73 BGJN 100450Z AUTO 19007KT 9999NDV OVC012/// 04/03 Q1007
GOH BGGH Nuuk, GL Godthaab / Nuuk Airport 3 4/4 29.76 BGGH 100450Z AUTO 19003KT 9999NDV OVC003/// 04/04 Q1008
THU BGTL Thule, GL Thule Air Base 3 6.21 4/4 29.63 BGTL 100406Z AUTO 30003KT 9999 OVC009 04/04 A2963 RMK AO2 SLP018 TSNO $
PDP SULS Punta del Este, UY Capitan Corbeta CA Curbelo International Airport 3 3.11 4/4 30.44 SULS 100400Z 30003KT 5000 0400NW BCFG BR FEW002 04/04 Q1031
PUQ SCCI Punta Arenas, CL Pdte. Carlos Ibañez del Campo Airport 11 6.21 4/2 29.56 SCCI 100400Z 30011KT 9999 FEW016 BKN080 04/02 Q1001 NOSIG
BBA SCBA Balmaceda, CL Balmaceda Airport 12 6.21 4/2 29.88 SCBA 100400Z AUTO 32012KT 9999 FEW018/// 04/02 Q1012
RGL SAWG Rio Gallegos, AR Piloto Civil N. Fernández Airport 8 6.21 4/1 29.62 SAWG 100400Z 24008KT CAVOK 04/01 Q1003
TUC SANT San Miguel de Tucumán, AR Teniente Benjamin Matienzo Airport 7 6.21 4/3 30.38 SANT 100400Z 36007KT CAVOK 04/03 Q1029 RMK PP000
MDZ SAME Mendoza, AR El Plumerillo Airport 3 6.21 4/1 30.24 SAME 100400Z 23003KT CAVOK 04/01 Q1024
WKF FAWK Pretoria, ZA Waterkloof Air Force Base 3 4/2 30.30 FAWK 100400Z AUTO 18003KT //// // ////// 04/02 Q1026
YCY CYCY Clyde River, CA Clyde River Airport 10 9 4/0 29.68 CYCY 100400Z AUTO 28010KT 9SM CLR 04/00 A2968 RMK SLP054
BRW PABR Utqiaġvik, US Wiley Post Will Rogers Memorial Airport 15 10 5/3 29.72 PABR 100453Z 27015KT 10SM -RA OVC012 05/03 A2972 RMK AO2 SLP064 P0002 T00500033 $
SMV LSZS CH Samedan Airport 3 6.21 5/4 30.35 LSZS 100450Z AUTO VRB03KT 9999 FEW024 05/04 Q1028
SFJ BGSF Kangerlussuaq, GL Kangerlussuaq Airport 4 5/4 29.76 BGSF 100450Z AUTO 04004KT 9999NDV DZ OVC043/// 05/04 Q1008
PAAD Deadhorse, US Point Thomson Airstrip 12 18 10 5/2 29.80 PAAD 100435Z AUTO 24012G18KT 10SM OVC041 06/02 A2980 RMK AO2 T00580023
MVD SUMU Montevideo, UY Carrasco International /General C L Berisso Airport 0 0.12 5/5 30.44 SUMU 100433Z 00000KT 0200 R19/1600U R24/0250N FG FEW009 05/05 Q1031 NOSIG
CWKM 11 20 5/4 29.84 CWKM 100429Z AUTO 27011G20KT ////SM FEW011 SCT017 BKN021 05/04 A2984
MDQ SAZM Mar del Plata, AR Ástor Piazzola International Airport 4 6.21 5/5 30.41 SAZM 100400Z 36004KT CAVOK 05/05 Q1030 RMK PP///
USH SAWH Ushuahia, AR Malvinas Argentinas Airport 8 6.21 5/2 29.50 SAWH 100400Z 12008KT 9999 SCT042 05/02 Q0999 RMK PP000
SLA SASA Salta, AR Martin Miguel De Guemes International Airport 6 6.21 5/2 30.41 SASA 100400Z 34006KT CAVOK 05/02 Q1030 RMK PP000
ROS SAAR Rosario, AR Islas Malvinas Airport 3 5.59 5/3 30.41 SAAR 100400Z 32003KT 9000 NSC 05/03 Q1030 RMK PP000
ERS FYWE Windhoek, NA Eros Airport 4 6.21 5/-9 30.27 FYWE 100400Z 16004KT CAVOK 05/M09 Q1025
GFY FYGF Grootfontein, NA Grootfontein Airport 3 5/-3 30.24 FYGF 100400Z AUTO 28003KT //// // ////// 05/M03 Q1024
KIM FAKM Kimberley, ZA Kimberley Airport 4 6.21 5/2 30.18 FAKM 100400Z 36004KT CAVOK 05/02 Q1022
YVM CYVM Qikiqtarjuaq, CA Qikiqtarjuaq Airport 9 9 5/4 29.72 CYVM 100400Z AUTO 19009KT 9SM CLR 05/04 A2972 RMK SLP067